Picnic Point, Washington
Current Conditions -  °F | °C
As of 11:53 PM on Thursday 23 Oct 2014 (Local Time) from KTIW Reporting Station
Overcast Overcast  
Wind Chill: 50°   Ceiling: 4900
Heat Index: 50°   Visibility: 10mi
Dew Point: 45°   Wind: 6mph
Humidity: 83%   Direction: 180°S
Pressure: 30.01"   Gusts: NA
Location:  47.2986°N, 122.616°W
Report Text: KTIW 240653Z AUTO 18005KT 10SM BKN049 OVC060 10/07 A3001 RMK AO2 RAB31E43 SLP162 P0000 T01000072
Loading
Personal Weather Stations






























Interactive Weather Map
Tropical Storm Tracking
New forecast layout! Learn more

10-Day Weather Forecast

Advertisements
Track Severe Weather on mobile